sensor_id;sensor_type;location;lat;lon;timestamp;P1;durP1;ratioP1;P2;durP2;ratioP2
31298;SDS011;17927;52.350;13.402;2023-07-29T00:01:35;3.92;;;3.72;;
31298;SDS011;17927;52.350;13.402;2023-07-29T00:04:00;4.15;;;3.85;;
31298;SDS011;17927;52.350;13.402;2023-07-29T00:06:26;4.20;;;3.90;;
31298;SDS011;17927;52.350;13.402;2023-07-29T00:08:52;4.68;;;3.65;;
31298;SDS011;17927;52.350;13.402;2023-07-29T00:11:17;5.20;;;4.70;;
31298;SDS011;17927;52.350;13.402;2023-07-29T00:13:42;5.55;;;4.10;;
31298;SDS011;17927;52.350;13.402;2023-07-29T00:16:08;4.35;;;4.10;;
31298;SDS011;17927;52.350;13.402;2023-07-29T00:18:33;4.93;;;4.07;;
31298;SDS011;17927;52.350;13.402;2023-07-29T00:20:58;4.25;;;4.00;;
31298;SDS011;17927;52.350;13.402;2023-07-29T00:23:23;4.82;;;3.75;;
31298;SDS011;17927;52.350;13.402;2023-07-29T00:25:49;4.57;;;3.65;;
31298;SDS011;17927;52.350;13.402;2023-07-29T00:28:14;3.80;;;3.60;;
31298;SDS011;17927;52.350;13.402;2023-07-29T00:30:39;3.90;;;3.70;;
31298;SDS011;17927;52.350;13.402;2023-07-29T00:33:04;4.47;;;4.00;;
31298;SDS011;17927;52.350;13.402;2023-07-29T00:35:30;4.93;;;3.67;;
31298;SDS011;17927;52.350;13.402;2023-07-29T00:37:55;4.00;;;3.55;;
31298;SDS011;17927;52.350;13.402;2023-07-29T00:40:21;3.72;;;3.45;;
31298;SDS011;17927;52.350;13.402;2023-07-29T00:42:47;3.45;;;3.20;;
31298;SDS011;17927;52.350;13.402;2023-07-29T00:45:13;5.30;;;3.45;;
31298;SDS011;17927;52.350;13.402;2023-07-29T00:47:38;4.80;;;3.60;;
31298;SDS011;17927;52.350;13.402;2023-07-29T00:50:04;3.95;;;3.47;;
31298;SDS011;17927;52.350;13.402;2023-07-29T00:52:31;7.20;;;4.10;;
31298;SDS011;17927;52.350;13.402;2023-07-29T00:54:56;3.70;;;3.40;;
31298;SDS011;17927;52.350;13.402;2023-07-29T00:57:22;4.53;;;3.60;;
31298;SDS011;17927;52.350;13.402;2023-07-29T00:59:50;3.95;;;3.47;;
31298;SDS011;17927;52.350;13.402;2023-07-29T01:02:15;4.35;;;4.03;;
31298;SDS011;17927;52.350;13.402;2023-07-29T01:04:41;4.93;;;3.88;;
31298;SDS011;17927;52.350;13.402;2023-07-29T01:07:11;4.55;;;4.25;;
31298;SDS011;17927;52.350;13.402;2023-07-29T01:09:49;4.22;;;4.00;;
31298;SDS011;17927;52.350;13.402;2023-07-29T01:12:21;4.13;;;3.92;;
31298;SDS011;17927;52.350;13.402;2023-07-29T01:14:59;4.47;;;4.28;;
31298;SDS011;17927;52.350;13.402;2023-07-29T01:17:40;5.32;;;3.80;;
31298;SDS011;17927;52.350;13.402;2023-07-29T01:20:14;4.55;;;4.18;;
31298;SDS011;17927;52.350;13.402;2023-07-29T01:22:40;4.93;;;3.85;;
31298;SDS011;17927;52.350;13.402;2023-07-29T01:25:06;4.57;;;4.20;;
31298;SDS011;17927;52.350;13.402;2023-07-29T01:27:32;4.30;;;3.90;;
31298;SDS011;17927;52.350;13.402;2023-07-29T01:29:58;4.55;;;4.03;;
31298;SDS011;17927;52.350;13.402;2023-07-29T01:32:27;4.38;;;3.92;;
31298;SDS011;17927;52.350;13.402;2023-07-29T01:37:37;4.00;;;3.70;;
31298;SDS011;17927;52.350;13.402;2023-07-29T01:40:04;4.25;;;3.97;;
31298;SDS011;17927;52.350;13.402;2023-07-29T01:42:32;4.13;;;3.88;;
31298;SDS011;17927;52.350;13.402;2023-07-29T01:44:57;7.68;;;4.00;;
31298;SDS011;17927;52.350;13.402;2023-07-29T01:47:22;4.55;;;3.40;;
31298;SDS011;17927;52.350;13.402;2023-07-29T01:49:48;5.57;;;4.10;;
31298;SDS011;17927;52.350;13.402;2023-07-29T01:52:13;3.85;;;3.55;;
31298;SDS011;17927;52.350;13.402;2023-07-29T01:54:38;3.60;;;3.30;;
31298;SDS011;17927;52.350;13.402;2023-07-29T01:57:03;3.67;;;3.47;;
31298;SDS011;17927;52.350;13.402;2023-07-29T01:59:29;8.55;;;3.90;;
31298;SDS011;17927;52.350;13.402;2023-07-29T02:01:54;4.10;;;3.85;;
31298;SDS011;17927;52.350;13.402;2023-07-29T02:04:19;4.10;;;3.90;;
31298;SDS011;17927;52.350;13.402;2023-07-29T02:06:44;4.65;;;4.35;;
31298;SDS011;17927;52.350;13.402;2023-07-29T02:09:10;4.60;;;4.30;;
31298;SDS011;17927;52.350;13.402;2023-07-29T02:11:35;7.45;;;4.07;;
31298;SDS011;17927;52.350;13.402;2023-07-29T02:14:00;4.28;;;3.97;;
31298;SDS011;17927;52.350;13.402;2023-07-29T02:16:25;4.38;;;3.92;;
31298;SDS011;17927;52.350;13.402;2023-07-29T02:18:51;6.22;;;4.35;;
31298;SDS011;17927;52.350;13.402;2023-07-29T02:21:16;3.97;;;3.67;;
31298;SDS011;17927;52.350;13.402;2023-07-29T02:23:41;4.18;;;3.88;;
31298;SDS011;17927;52.350;13.402;2023-07-29T02:26:07;4.78;;;4.40;;
31298;SDS011;17927;52.350;13.402;2023-07-29T02:28:32;4.10;;;3.90;;
31298;SDS011;17927;52.350;13.402;2023-07-29T02:31:14;3.83;;;3.58;;
31298;SDS011;17927;52.350;13.402;2023-07-29T02:33:39;8.80;;;4.35;;
31298;SDS011;17927;52.350;13.402;2023-07-29T02:36:04;7.15;;;6.65;;
31298;SDS011;17927;52.350;13.402;2023-07-29T02:38:30;6.53;;;5.93;;
31298;SDS011;17927;52.350;13.402;2023-07-29T02:40:55;7.70;;;5.97;;
31298;SDS011;17927;52.350;13.402;2023-07-29T02:43:20;5.20;;;4.90;;
31298;SDS011;17927;52.350;13.402;2023-07-29T02:45:45;8.95;;;8.05;;
31298;SDS011;17927;52.350;13.402;2023-07-29T02:48:11;7.53;;;7.00;;
31298;SDS011;17927;52.350;13.402;2023-07-29T02:50:36;7.20;;;6.72;;
31298;SDS011;17927;52.350;13.402;2023-07-29T02:53:01;8.30;;;7.70;;
31298;SDS011;17927;52.350;13.402;2023-07-29T02:55:27;7.07;;;6.47;;
31298;SDS011;17927;52.350;13.402;2023-07-29T02:57:52;4.97;;;4.50;;
31298;SDS011;17927;52.350;13.402;2023-07-29T03:00:17;5.38;;;4.95;;
31298;SDS011;17927;52.350;13.402;2023-07-29T03:02:42;6.80;;;6.30;;
31298;SDS011;17927;52.350;13.402;2023-07-29T03:05:08;6.85;;;6.30;;
31298;SDS011;17927;52.350;13.402;2023-07-29T03:07:33;6.00;;;5.50;;
31298;SDS011;17927;52.350;13.402;2023-07-29T03:09:58;5.15;;;4.70;;
31298;SDS011;17927;52.350;13.402;2023-07-29T03:12:24;4.90;;;4.50;;
31298;SDS011;17927;52.350;13.402;2023-07-29T03:14:49;5.57;;;5.28;;
31298;SDS011;17927;52.350;13.402;2023-07-29T03:17:14;4.57;;;4.15;;
31298;SDS011;17927;52.350;13.402;2023-07-29T03:19:39;5.15;;;4.85;;
31298;SDS011;17927;52.350;13.402;2023-07-29T03:22:04;5.13;;;4.82;;
31298;SDS011;17927;52.350;13.402;2023-07-29T03:24:30;4.85;;;4.43;;
31298;SDS011;17927;52.350;13.402;2023-07-29T03:26:55;5.20;;;4.70;;
31298;SDS011;17927;52.350;13.402;2023-07-29T03:29:20;4.85;;;4.22;;
31298;SDS011;17927;52.350;13.402;2023-07-29T03:31:46;5.72;;;5.25;;
31298;SDS011;17927;52.350;13.402;2023-07-29T03:34:11;5.20;;;4.63;;
31298;SDS011;17927;52.350;13.402;2023-07-29T03:36:37;4.38;;;4.18;;
31298;SDS011;17927;52.350;13.402;2023-07-29T03:39:02;4.47;;;4.22;;
31298;SDS011;17927;52.350;13.402;2023-07-29T03:41:28;5.10;;;4.70;;
31298;SDS011;17927;52.350;13.402;2023-07-29T03:43:54;4.45;;;4.25;;
31298;SDS011;17927;52.350;13.402;2023-07-29T03:46:19;4.20;;;3.95;;
31298;SDS011;17927;52.350;13.402;2023-07-29T03:48:46;4.35;;;4.10;;
31298;SDS011;17927;52.350;13.402;2023-07-29T03:51:12;4.15;;;3.95;;
31298;SDS011;17927;52.350;13.402;2023-07-29T03:53:37;4.63;;;4.32;;
31298;SDS011;17927;52.350;13.402;2023-07-29T03:56:02;4.38;;;4.18;;
31298;SDS011;17927;52.350;13.402;2023-07-29T03:58:27;6.70;;;4.45;;
31298;SDS011;17927;52.350;13.402;2023-07-29T04:00:53;4.90;;;4.38;;
31298;SDS011;17927;52.350;13.402;2023-07-29T04:03:18;5.20;;;4.85;;
31298;SDS011;17927;52.350;13.402;2023-07-29T04:05:43;4.35;;;4.05;;
31298;SDS011;17927;52.350;13.402;2023-07-29T04:08:09;3.45;;;3.25;;
31298;SDS011;17927;52.350;13.402;2023-07-29T04:10:34;4.20;;;3.90;;
31298;SDS011;17927;52.350;13.402;2023-07-29T04:13:00;4.50;;;4.10;;
31298;SDS011;17927;52.350;13.402;2023-07-29T04:15:25;6.32;;;3.72;;
31298;SDS011;17927;52.350;13.402;2023-07-29T04:17:50;4.95;;;4.65;;
31298;SDS011;17927;52.350;13.402;2023-07-29T04:20:16;4.35;;;4.13;;
31298;SDS011;17927;52.350;13.402;2023-07-29T04:22:41;4.00;;;3.80;;
31298;SDS011;17927;52.350;13.402;2023-07-29T04:25:06;4.82;;;4.53;;
31298;SDS011;17927;52.350;13.402;2023-07-29T04:27:32;4.85;;;4.55;;
31298;SDS011;17927;52.350;13.402;2023-07-29T04:29:57;6.88;;;4.72;;
31298;SDS011;17927;52.350;13.402;2023-07-29T04:32:22;4.93;;;4.63;;
31298;SDS011;17927;52.350;13.402;2023-07-29T04:34:47;4.38;;;4.10;;
31298;SDS011;17927;52.350;13.402;2023-07-29T04:37:13;4.70;;;4.30;;
31298;SDS011;17927;52.350;13.402;2023-07-29T04:39:38;4.68;;;4.38;;
31298;SDS011;17927;52.350;13.402;2023-07-29T04:42:03;4.35;;;4.05;;
31298;SDS011;17927;52.350;13.402;2023-07-29T04:44:29;4.30;;;4.00;;
31298;SDS011;17927;52.350;13.402;2023-07-29T04:46:54;4.50;;;4.10;;
31298;SDS011;17927;52.350;13.402;2023-07-29T04:49:19;6.40;;;4.15;;
31298;SDS011;17927;52.350;13.402;2023-07-29T04:51:44;4.55;;;4.25;;
31298;SDS011;17927;52.350;13.402;2023-07-29T04:54:10;6.03;;;3.80;;
31298;SDS011;17927;52.350;13.402;2023-07-29T04:56:35;4.47;;;4.25;;
31298;SDS011;17927;52.350;13.402;2023-07-29T04:59:00;4.10;;;3.70;;
31298;SDS011;17927;52.350;13.402;2023-07-29T05:01:25;4.50;;;4.20;;
31298;SDS011;17927;52.350;13.402;2023-07-29T05:03:50;5.43;;;5.03;;
31298;SDS011;17927;52.350;13.402;2023-07-29T05:06:16;4.25;;;3.83;;
31298;SDS011;17927;52.350;13.402;2023-07-29T05:08:41;4.20;;;3.90;;
31298;SDS011;17927;52.350;13.402;2023-07-29T05:11:07;4.22;;;3.95;;
31298;SDS011;17927;52.350;13.402;2023-07-29T05:13:32;4.15;;;3.85;;
31298;SDS011;17927;52.350;13.402;2023-07-29T05:15:57;4.13;;;3.92;;
31298;SDS011;17927;52.350;13.402;2023-07-29T05:18:22;4.65;;;4.38;;
31298;SDS011;17927;52.350;13.402;2023-07-29T05:20:48;4.60;;;3.70;;
31298;SDS011;17927;52.350;13.402;2023-07-29T05:23:14;3.70;;;3.42;;
31298;SDS011;17927;52.350;13.402;2023-07-29T05:25:39;3.80;;;3.60;;
31298;SDS011;17927;52.350;13.402;2023-07-29T05:28:04;3.63;;;3.25;;
31298;SDS011;17927;52.350;13.402;2023-07-29T05:30:30;3.88;;;3.55;;
31298;SDS011;17927;52.350;13.402;2023-07-29T05:33:02;4.18;;;3.88;;
31298;SDS011;17927;52.350;13.402;2023-07-29T05:35:29;3.85;;;3.65;;
31298;SDS011;17927;52.350;13.402;2023-07-29T05:37:54;4.18;;;3.88;;
31298;SDS011;17927;52.350;13.402;2023-07-29T05:40:19;3.65;;;3.45;;
31298;SDS011;17927;52.350;13.402;2023-07-29T05:42:45;6.00;;;3.70;;
31298;SDS011;17927;52.350;13.402;2023-07-29T05:45:10;3.80;;;3.50;;
31298;SDS011;17927;52.350;13.402;2023-07-29T05:47:36;3.72;;;3.35;;
31298;SDS011;17927;52.350;13.402;2023-07-29T05:50:02;3.80;;;3.53;;
31298;SDS011;17927;52.350;13.402;2023-07-29T05:52:29;3.40;;;3.15;;
31298;SDS011;17927;52.350;13.402;2023-07-29T05:54:58;3.55;;;3.35;;
31298;SDS011;17927;52.350;13.402;2023-07-29T05:57:23;4.28;;;3.10;;
31298;SDS011;17927;52.350;13.402;2023-07-29T05:59:49;3.22;;;3.03;;
31298;SDS011;17927;52.350;13.402;2023-07-29T06:02:14;3.47;;;3.28;;
31298;SDS011;17927;52.350;13.402;2023-07-29T06:04:39;3.33;;;3.13;;
31298;SDS011;17927;52.350;13.402;2023-07-29T06:07:05;3.63;;;3.33;;
31298;SDS011;17927;52.350;13.402;2023-07-29T06:09:30;2.90;;;2.80;;
31298;SDS011;17927;52.350;13.402;2023-07-29T06:11:56;2.97;;;2.78;;
31298;SDS011;17927;52.350;13.402;2023-07-29T06:14:21;2.75;;;2.55;;
31298;SDS011;17927;52.350;13.402;2023-07-29T06:16:46;3.45;;;3.13;;
31298;SDS011;17927;52.350;13.402;2023-07-29T06:19:12;2.90;;;2.70;;
31298;SDS011;17927;52.350;13.402;2023-07-29T06:21:38;3.20;;;3.00;;
31298;SDS011;17927;52.350;13.402;2023-07-29T06:24:03;2.95;;;2.72;;
31298;SDS011;17927;52.350;13.402;2023-07-29T06:26:29;2.72;;;2.63;;
31298;SDS011;17927;52.350;13.402;2023-07-29T06:28:54;3.30;;;2.85;;
31298;SDS011;17927;52.350;13.402;2023-07-29T06:31:19;2.60;;;2.50;;
31298;SDS011;17927;52.350;13.402;2023-07-29T06:33:45;2.65;;;2.55;;
31298;SDS011;17927;52.350;13.402;2023-07-29T06:36:11;2.65;;;2.45;;
31298;SDS011;17927;52.350;13.402;2023-07-29T06:38:36;2.30;;;2.20;;
31298;SDS011;17927;52.350;13.402;2023-07-29T06:41:03;2.80;;;2.65;;
31298;SDS011;17927;52.350;13.402;2023-07-29T06:43:28;2.55;;;2.35;;
31298;SDS011;17927;52.350;13.402;2023-07-29T06:45:54;2.92;;;2.72;;
31298;SDS011;17927;52.350;13.402;2023-07-29T06:48:20;3.38;;;2.55;;
31298;SDS011;17927;52.350;13.402;2023-07-29T06:50:45;3.03;;;2.83;;
31298;SDS011;17927;52.350;13.402;2023-07-29T06:53:10;2.75;;;2.55;;
31298;SDS011;17927;52.350;13.402;2023-07-29T06:55:36;2.75;;;2.55;;
31298;SDS011;17927;52.350;13.402;2023-07-29T06:58:02;2.85;;;2.65;;
31298;SDS011;17927;52.350;13.402;2023-07-29T07:00:27;2.95;;;2.75;;
31298;SDS011;17927;52.350;13.402;2023-07-29T07:02:52;2.40;;;2.30;;
31298;SDS011;17927;52.350;13.402;2023-07-29T07:05:18;2.85;;;2.65;;
31298;SDS011;17927;52.350;13.402;2023-07-29T07:07:43;2.95;;;2.58;;
31298;SDS011;17927;52.350;13.402;2023-07-29T07:10:08;2.50;;;2.40;;
31298;SDS011;17927;52.350;13.402;2023-07-29T07:12:34;3.00;;;2.80;;
31298;SDS011;17927;52.350;13.402;2023-07-29T07:14:59;2.60;;;2.40;;
31298;SDS011;17927;52.350;13.402;2023-07-29T07:17:25;2.75;;;2.53;;
31298;SDS011;17927;52.350;13.402;2023-07-29T07:19:50;3.55;;;2.33;;
31298;SDS011;17927;52.350;13.402;2023-07-29T07:22:16;3.00;;;2.63;;
31298;SDS011;17927;52.350;13.402;2023-07-29T07:24:41;4.13;;;2.22;;
31298;SDS011;17927;52.350;13.402;2023-07-29T07:27:06;2.45;;;2.22;;
31298;SDS011;17927;52.350;13.402;2023-07-29T07:29:31;2.30;;;2.20;;
31298;SDS011;17927;52.350;13.402;2023-07-29T07:31:57;2.55;;;2.35;;
31298;SDS011;17927;52.350;13.402;2023-07-29T07:34:22;2.55;;;2.08;;
31298;SDS011;17927;52.350;13.402;2023-07-29T07:36:48;2.17;;;1.80;;
31298;SDS011;17927;52.350;13.402;2023-07-29T07:39:14;2.30;;;2.20;;
31298;SDS011;17927;52.350;13.402;2023-07-29T07:41:39;5.28;;;2.40;;
31298;SDS011;17927;52.350;13.402;2023-07-29T07:44:05;6.97;;;1.98;;
31298;SDS011;17927;52.350;13.402;2023-07-29T07:46:30;2.15;;;2.03;;
31298;SDS011;17927;52.350;13.402;2023-07-29T07:48:56;1.90;;;1.80;;
31298;SDS011;17927;52.350;13.402;2023-07-29T07:51:21;2.08;;;1.98;;
31298;SDS011;17927;52.350;13.402;2023-07-29T07:53:46;3.00;;;2.28;;
31298;SDS011;17927;52.350;13.402;2023-07-29T07:56:11;1.80;;;1.70;;
31298;SDS011;17927;52.350;13.402;2023-07-29T07:58:37;11.82;;;2.20;;
31298;SDS011;17927;52.350;13.402;2023-07-29T08:01:03;2.17;;;1.70;;
31298;SDS011;17927;52.350;13.402;2023-07-29T08:03:32;2.22;;;2.13;;
31298;SDS011;17927;52.350;13.402;2023-07-29T08:05:58;4.88;;;1.83;;
31298;SDS011;17927;52.350;13.402;2023-07-29T08:08:24;2.72;;;1.83;;
31298;SDS011;17927;52.350;13.402;2023-07-29T08:10:50;4.38;;;1.90;;
31298;SDS011;17927;52.350;13.402;2023-07-29T08:13:16;2.10;;;2.00;;
31298;SDS011;17927;52.350;13.402;2023-07-29T08:15:45;1.85;;;1.75;;
31298;SDS011;17927;52.350;13.402;2023-07-29T08:18:11;4.88;;;1.60;;
31298;SDS011;17927;52.350;13.402;2023-07-29T08:20:36;1.55;;;1.45;;
31298;SDS011;17927;52.350;13.402;2023-07-29T08:23:01;1.65;;;1.55;;
31298;SDS011;17927;52.350;13.402;2023-07-29T08:25:28;1.90;;;1.80;;
31298;SDS011;17927;52.350;13.402;2023-07-29T08:27:53;1.95;;;1.65;;
31298;SDS011;17927;52.350;13.402;2023-07-29T08:30:19;1.77;;;1.67;;
31298;SDS011;17927;52.350;13.402;2023-07-29T08:32:44;1.85;;;1.75;;
31298;SDS011;17927;52.350;13.402;2023-07-29T08:35:09;2.83;;;2.63;;
31298;SDS011;17927;52.350;13.402;2023-07-29T08:37:35;1.83;;;1.73;;
31298;SDS011;17927;52.350;13.402;2023-07-29T08:40:00;1.65;;;1.48;;
31298;SDS011;17927;52.350;13.402;2023-07-29T08:42:27;2.35;;;2.25;;
31298;SDS011;17927;52.350;13.402;2023-07-29T08:44:55;2.47;;;2.28;;
31298;SDS011;17927;52.350;13.402;2023-07-29T08:47:21;1.77;;;1.67;;
31298;SDS011;17927;52.350;13.402;2023-07-29T08:49:47;1.70;;;1.60;;
31298;SDS011;17927;52.350;13.402;2023-07-29T08:52:13;1.33;;;1.33;;
31298;SDS011;17927;52.350;13.402;2023-07-29T08:54:39;1.38;;;1.33;;
31298;SDS011;17927;52.350;13.402;2023-07-29T08:57:05;3.53;;;1.42;;
31298;SDS011;17927;52.350;13.402;2023-07-29T08:59:31;1.60;;;1.50;;
31298;SDS011;17927;52.350;13.402;2023-07-29T09:01:57;1.33;;;1.20;;
31298;SDS011;17927;52.350;13.402;2023-07-29T09:04:23;1.60;;;1.50;;
31298;SDS011;17927;52.350;13.402;2023-07-29T09:06:50;1.67;;;1.58;;
31298;SDS011;17927;52.350;13.402;2023-07-29T09:09:16;2.25;;;1.50;;
31298;SDS011;17927;52.350;13.402;2023-07-29T09:11:41;1.65;;;1.30;;
31298;SDS011;17927;52.350;13.402;2023-07-29T09:14:06;1.80;;;1.70;;
31298;SDS011;17927;52.350;13.402;2023-07-29T09:16:32;6.43;;;1.92;;
31298;SDS011;17927;52.350;13.402;2023-07-29T09:19:00;1.42;;;1.40;;
31298;SDS011;17927;52.350;13.402;2023-07-29T09:21:27;1.77;;;1.63;;
31298;SDS011;17927;52.350;13.402;2023-07-29T09:23:54;1.35;;;1.35;;
31298;SDS011;17927;52.350;13.402;2023-07-29T09:26:23;1.60;;;1.50;;
31298;SDS011;17927;52.350;13.402;2023-07-29T09:28:56;1.35;;;1.35;;
31298;SDS011;17927;52.350;13.402;2023-07-29T09:31:23;1.30;;;1.30;;
31298;SDS011;17927;52.350;13.402;2023-07-29T09:33:56;1.58;;;1.48;;
31298;SDS011;17927;52.350;13.402;2023-07-29T09:38:51;2.38;;;2.28;;
31298;SDS011;17927;52.350;13.402;2023-07-29T09:41:21;1.67;;;1.58;;
31298;SDS011;17927;52.350;13.402;2023-07-29T09:44:00;3.83;;;1.35;;
31298;SDS011;17927;52.350;13.402;2023-07-29T09:46:34;1.52;;;1.42;;
31298;SDS011;17927;52.350;13.402;2023-07-29T09:49:01;2.22;;;1.27;;
31298;SDS011;17927;52.350;13.402;2023-07-29T09:51:28;1.40;;;1.30;;
31298;SDS011;17927;52.350;13.402;2023-07-29T09:53:53;1.80;;;1.70;;
31298;SDS011;17927;52.350;13.402;2023-07-29T09:56:23;1.52;;;1.52;;
31298;SDS011;17927;52.350;13.402;2023-07-29T09:58:52;1.48;;;1.35;;
31298;SDS011;17927;52.350;13.402;2023-07-29T10:01:17;1.77;;;1.10;;
31298;SDS011;17927;52.350;13.402;2023-07-29T10:03:43;1.50;;;1.40;;
31298;SDS011;17927;52.350;13.402;2023-07-29T10:06:09;2.15;;;2.05;;
31298;SDS011;17927;52.350;13.402;2023-07-29T10:08:35;1.48;;;1.38;;
31298;SDS011;17927;52.350;13.402;2023-07-29T10:11:05;1.13;;;0.93;;
31298;SDS011;17927;52.350;13.402;2023-07-29T10:13:34;1.10;;;1.10;;
31298;SDS011;17927;52.350;13.402;2023-07-29T10:16:00;0.90;;;0.90;;
31298;SDS011;17927;52.350;13.402;2023-07-29T10:18:28;1.00;;;1.00;;
31298;SDS011;17927;52.350;13.402;2023-07-29T10:20:56;1.58;;;1.48;;
31298;SDS011;17927;52.350;13.402;2023-07-29T10:23:22;1.20;;;1.10;;
31298;SDS011;17927;52.350;13.402;2023-07-29T10:25:50;1.23;;;1.20;;
31298;SDS011;17927;52.350;13.402;2023-07-29T10:28:39;0.90;;;0.90;;
31298;SDS011;17927;52.350;13.402;2023-07-29T10:31:06;1.80;;;1.70;;
31298;SDS011;17927;52.350;13.402;2023-07-29T10:33:32;1.33;;;1.23;;
31298;SDS011;17927;52.350;13.402;2023-07-29T10:35:59;1.50;;;1.40;;
31298;SDS011;17927;52.350;13.402;2023-07-29T10:38:24;2.38;;;1.05;;
31298;SDS011;17927;52.350;13.402;2023-07-29T10:43:32;20.77;;;18.65;;
31298;SDS011;17927;52.350;13.402;2023-07-29T10:46:20;10.70;;;9.77;;
31298;SDS011;17927;52.350;13.402;2023-07-29T10:54:03;1.45;;;1.42;;
31298;SDS011;17927;52.350;13.402;2023-07-29T10:56:43;6.80;;;3.70;;
31298;SDS011;17927;52.350;13.402;2023-07-29T11:01:41;2.07;;;1.97;;
31298;SDS011;17927;52.350;13.402;2023-07-29T11:09:39;5.43;;;2.20;;
31298;SDS011;17927;52.350;13.402;2023-07-29T11:15:26;5.93;;;3.00;;
31298;SDS011;17927;52.350;13.402;2023-07-29T11:17:53;6.80;;;1.50;;
31298;SDS011;17927;52.350;13.402;2023-07-29T11:20:27;3.83;;;2.22;;
31298;SDS011;17927;52.350;13.402;2023-07-29T11:22:54;1.80;;;1.70;;
31298;SDS011;17927;52.350;13.402;2023-07-29T11:25:21;1.77;;;1.67;;
31298;SDS011;17927;52.350;13.402;2023-07-29T11:27:48;1.52;;;1.42;;
31298;SDS011;17927;52.350;13.402;2023-07-29T11:30:15;1.80;;;1.70;;
31298;SDS011;17927;52.350;13.402;2023-07-29T11:32:41;1.63;;;1.52;;
31298;SDS011;17927;52.350;13.402;2023-07-29T11:35:08;4.68;;;2.42;;
31298;SDS011;17927;52.350;13.402;2023-07-29T11:37:36;3.13;;;2.53;;
31298;SDS011;17927;52.350;13.402;2023-07-29T11:40:02;2.17;;;2.08;;
31298;SDS011;17927;52.350;13.402;2023-07-29T11:42:31;2.20;;;2.00;;
31298;SDS011;17927;52.350;13.402;2023-07-29T11:44:57;3.47;;;3.15;;
31298;SDS011;17927;52.350;13.402;2023-07-29T11:47:25;2.60;;;2.40;;
31298;SDS011;17927;52.350;13.402;2023-07-29T11:49:51;2.17;;;1.98;;
31298;SDS011;17927;52.350;13.402;2023-07-29T11:52:16;3.90;;;2.30;;
31298;SDS011;17927;52.350;13.402;2023-07-29T11:54:44;2.40;;;2.20;;
31298;SDS011;17927;52.350;13.402;2023-07-29T11:57:13;5.20;;;2.15;;
31298;SDS011;17927;52.350;13.402;2023-07-29T11:59:39;2.55;;;1.80;;
31298;SDS011;17927;52.350;13.402;2023-07-29T12:02:11;2.75;;;1.88;;
31298;SDS011;17927;52.350;13.402;2023-07-29T12:04:38;2.15;;;2.05;;
31298;SDS011;17927;52.350;13.402;2023-07-29T12:07:04;2.30;;;2.10;;
31298;SDS011;17927;52.350;13.402;2023-07-29T12:09:30;2.35;;;2.13;;
31298;SDS011;17927;52.350;13.402;2023-07-29T12:11:56;1.92;;;1.77;;
31298;SDS011;17927;52.350;13.402;2023-07-29T12:14:22;2.33;;;2.13;;
31298;SDS011;17927;52.350;13.402;2023-07-29T12:16:50;2.70;;;2.47;;
31298;SDS011;17927;52.350;13.402;2023-07-29T12:19:17;2.80;;;2.45;;
31298;SDS011;17927;52.350;13.402;2023-07-29T12:21:43;2.70;;;2.50;;
31298;SDS011;17927;52.350;13.402;2023-07-29T12:24:09;3.03;;;2.28;;
31298;SDS011;17927;52.350;13.402;2023-07-29T12:26:37;9.35;;;3.25;;
31298;SDS011;17927;52.350;13.402;2023-07-29T12:29:12;4.60;;;3.13;;
31298;SDS011;17927;52.350;13.402;2023-07-29T12:31:38;2.15;;;1.80;;
31298;SDS011;17927;52.350;13.402;2023-07-29T12:34:03;2.30;;;1.33;;
31298;SDS011;17927;52.350;13.402;2023-07-29T12:36:42;0.88;;;0.88;;
31298;SDS011;17927;52.350;13.402;2023-07-29T12:39:21;0.82;;;0.82;;
31298;SDS011;17927;52.350;13.402;2023-07-29T12:41:51;1.95;;;1.42;;
31298;SDS011;17927;52.350;13.402;2023-07-29T12:44:18;1.70;;;1.60;;
31298;SDS011;17927;52.350;13.402;2023-07-29T12:46:43;1.13;;;1.02;;
31298;SDS011;17927;52.350;13.402;2023-07-29T12:49:09;0.98;;;0.80;;
31298;SDS011;17927;52.350;13.402;2023-07-29T12:51:34;1.98;;;0.63;;
31298;SDS011;17927;52.350;13.402;2023-07-29T12:54:00;0.70;;;0.70;;
31298;SDS011;17927;52.350;13.402;2023-07-29T12:56:26;0.70;;;0.70;;
31298;SDS011;17927;52.350;13.402;2023-07-29T12:58:51;0.95;;;0.95;;
31298;SDS011;17927;52.350;13.402;2023-07-29T13:01:17;2.78;;;2.63;;
31298;SDS011;17927;52.350;13.402;2023-07-29T13:03:47;1.10;;;1.00;;
31298;SDS011;17927;52.350;13.402;2023-07-29T13:06:13;1.23;;;1.13;;
31298;SDS011;17927;52.350;13.402;2023-07-29T13:08:38;2.25;;;1.50;;
31298;SDS011;17927;52.350;13.402;2023-07-29T13:11:03;3.67;;;3.38;;
31298;SDS011;17927;52.350;13.402;2023-07-29T13:13:29;1.30;;;1.20;;
31298;SDS011;17927;52.350;13.402;2023-07-29T13:15:54;1.45;;;1.10;;
31298;SDS011;17927;52.350;13.402;2023-07-29T13:18:20;0.70;;;0.70;;
31298;SDS011;17927;52.350;13.402;2023-07-29T13:20:46;2.90;;;1.33;;
31298;SDS011;17927;52.350;13.402;2023-07-29T13:23:11;1.45;;;1.38;;
31298;SDS011;17927;52.350;13.402;2023-07-29T13:25:36;5.65;;;2.55;;
31298;SDS011;17927;52.350;13.402;2023-07-29T13:28:02;1.25;;;1.13;;
31298;SDS011;17927;52.350;13.402;2023-07-29T13:30:27;1.02;;;0.90;;
31298;SDS011;17927;52.350;13.402;2023-07-29T13:32:52;1.67;;;1.13;;
31298;SDS011;17927;52.350;13.402;2023-07-29T13:35:18;2.25;;;0.85;;
31298;SDS011;17927;52.350;13.402;2023-07-29T13:37:43;1.73;;;1.08;;
31298;SDS011;17927;52.350;13.402;2023-07-29T13:40:08;1.25;;;1.13;;
31298;SDS011;17927;52.350;13.402;2023-07-29T13:42:33;3.85;;;3.45;;
31298;SDS011;17927;52.350;13.402;2023-07-29T13:44:59;3.13;;;1.55;;
31298;SDS011;17927;52.350;13.402;2023-07-29T13:47:24;3.60;;;3.40;;
31298;SDS011;17927;52.350;13.402;2023-07-29T13:49:49;4.57;;;1.77;;
31298;SDS011;17927;52.350;13.402;2023-07-29T13:52:14;2.05;;;1.23;;
31298;SDS011;17927;52.350;13.402;2023-07-29T13:54:40;1.35;;;1.35;;
31298;SDS011;17927;52.350;13.402;2023-07-29T13:57:05;2.28;;;1.27;;
31298;SDS011;17927;52.350;13.402;2023-07-29T13:59:31;1.80;;;1.70;;
31298;SDS011;17927;52.350;13.402;2023-07-29T14:01:57;1.20;;;1.10;;
31298;SDS011;17927;52.350;13.402;2023-07-29T14:04:22;1.10;;;1.10;;
31298;SDS011;17927;52.350;13.402;2023-07-29T14:06:47;1.50;;;1.40;;
31298;SDS011;17927;52.350;13.402;2023-07-29T14:09:12;1.55;;;1.45;;
31298;SDS011;17927;52.350;13.402;2023-07-29T14:11:38;1.50;;;1.40;;
31298;SDS011;17927;52.350;13.402;2023-07-29T14:14:03;1.67;;;1.20;;
31298;SDS011;17927;52.350;13.402;2023-07-29T14:16:28;2.30;;;1.33;;
31298;SDS011;17927;52.350;13.402;2023-07-29T14:18:53;2.53;;;1.30;;
31298;SDS011;17927;52.350;13.402;2023-07-29T14:21:19;1.13;;;1.08;;
31298;SDS011;17927;52.350;13.402;2023-07-29T14:23:44;1.40;;;1.40;;
31298;SDS011;17927;52.350;13.402;2023-07-29T14:26:09;2.00;;;1.90;;
31298;SDS011;17927;52.350;13.402;2023-07-29T14:28:35;1.63;;;1.52;;
31298;SDS011;17927;52.350;13.402;2023-07-29T14:31:01;1.27;;;1.27;;
31298;SDS011;17927;52.350;13.402;2023-07-29T14:33:26;1.52;;;1.30;;
31298;SDS011;17927;52.350;13.402;2023-07-29T14:35:51;1.50;;;1.40;;
31298;SDS011;17927;52.350;13.402;2023-07-29T14:38:16;1.13;;;1.13;;
31298;SDS011;17927;52.350;13.402;2023-07-29T14:40:42;1.48;;;1.38;;
31298;SDS011;17927;52.350;13.402;2023-07-29T14:43:07;1.00;;;1.00;;
31298;SDS011;17927;52.350;13.402;2023-07-29T14:45:32;1.25;;;0.90;;
31298;SDS011;17927;52.350;13.402;2023-07-29T14:47:57;0.90;;;0.90;;
31298;SDS011;17927;52.350;13.402;2023-07-29T14:50:23;0.80;;;0.80;;
31298;SDS011;17927;52.350;13.402;2023-07-29T14:52:48;1.02;;;0.93;;